Terminal Aerodrome Forecast
Issued by NWS Austin/San Antonio, TX

Current Version | Previous Version | Text Only | Print | Product List | Glossary On
Versions: 1 2 3 4 5 6 7 8 9 10 11 12
000
FTUS44 KEWX 011121
TAFDRT
TAF
KDRT 011121Z 0112/0212 10007KT P6SM BKN150
     FM011500 14009KT P6SM BKN150
     FM020100 10005KT P6SM FEW250=

USA.gov is the U.S. government's official web portal to all federal, state and local government web resources and services.